Terminal Aerodrome Forecast
Issued by NWS

Home | Current Version | Previous Version | Graphics & Text | Print | Product List | Glossary On
Versions: 1 2 3 4 5 6 7 8 9 10 11 12 13
158
FTUS43 KMPX 271130
TAFRWF
TAF
KRWF 271130Z 2712/2812 25007KT P6SM OVC100
     FM280200 22006KT P6SM SCT250
     FM280800 25008KT P6SM SCT100=

USA.gov is the U.S. government's official web portal to all federal, state and local government web resources and services.